createdAt,value
2018-08-14T00:00:09.717Z,36.03
2018-08-14T00:01:13.517Z,38.03
2018-08-14T00:02:17.183Z,37.83
2018-08-14T00:03:20.592Z,38.87
2018-08-14T00:04:24.065Z,34.47
2018-08-14T00:05:28.055Z,35.77
2018-08-14T00:06:31.747Z,39.27
2018-08-14T00:07:35.355Z,37.23
2018-08-14T00:08:38.857Z,41.70
2018-08-14T00:09:42.517Z,40.40
2018-08-14T00:10:46.495Z,38.03
2018-08-14T00:11:50.199Z,37.20
2018-08-14T00:12:53.846Z,40.57
2018-08-14T00:13:57.309Z,38.60
2018-08-14T00:15:00.911Z,38.87
2018-08-14T00:16:04.712Z,39.00
2018-08-14T00:17:08.214Z,37.87
2018-08-14T00:18:11.828Z,40.17
2018-08-14T00:19:15.255Z,40.87
2018-08-14T00:20:21.188Z,38.47
2018-08-14T00:21:24.841Z,34.73
2018-08-14T00:22:28.977Z,40.63
2018-08-14T00:23:32.476Z,35.67
2018-08-14T00:24:35.995Z,36.77
2018-08-14T00:25:39.515Z,40.97
2018-08-14T00:26:43.092Z,39.83
2018-08-14T00:27:47.349Z,39.50
2018-08-14T00:28:51.180Z,39.10
2018-08-14T00:29:54.842Z,39.97
2018-08-14T00:30:59.258Z,39.50
2018-08-14T00:32:02.766Z,39.90
2018-08-14T00:33:07.088Z,38.67
2018-08-14T00:34:10.722Z,36.57
2018-08-14T00:35:14.207Z,37.17
2018-08-14T00:36:17.779Z,39.83
2018-08-14T00:37:22.620Z,34.33
2018-08-14T00:38:26.355Z,36.53
2018-08-14T00:39:29.848Z,41.07
2018-08-14T00:40:33.403Z,32.57
2018-08-14T00:41:36.980Z,37.47
2018-08-14T00:42:40.624Z,34.23
2018-08-14T00:43:44.117Z,38.27
2018-08-14T00:44:47.709Z,38.93
2018-08-14T00:45:51.225Z,37.50
2018-08-14T00:46:54.783Z,36.00
2018-08-14T00:47:58.513Z,37.27
2018-08-14T00:49:02.443Z,38.33
2018-08-14T00:50:08.340Z,36.40
2018-08-14T00:51:13.039Z,36.13
2018-08-14T00:52:17.504Z,35.30
2018-08-14T00:53:21.034Z,38.00
2018-08-14T00:54:24.654Z,34.90
2018-08-14T00:55:28.286Z,36.80
2018-08-14T00:56:32.010Z,35.53
2018-08-14T00:57:35.743Z,38.47
2018-08-14T00:58:39.291Z,36.37
2018-08-14T00:59:43.040Z,36.50
2018-08-14T01:00:46.742Z,37.63
2018-08-14T01:01:50.314Z,35.43
2018-08-14T01:02:54.784Z,35.60
2018-08-14T01:03:58.648Z,38.10
2018-08-14T01:05:02.344Z,35.70
2018-08-14T01:06:05.908Z,35.73
2018-08-14T01:07:09.466Z,34.03
2018-08-14T01:08:13.262Z,35.77
2018-08-14T01:09:16.909Z,36.17
2018-08-14T01:10:20.679Z,34.93
2018-08-14T01:11:24.353Z,37.13
2018-08-14T01:12:28.170Z,33.43
2018-08-14T01:13:31.824Z,35.50
2018-08-14T01:14:35.384Z,36.13
2018-08-14T01:15:38.975Z,34.63
2018-08-14T01:16:42.595Z,32.23
2018-08-14T01:17:50.605Z,31.73
2018-08-14T01:18:54.135Z,30.63
2018-08-14T01:19:57.516Z,32.50
2018-08-14T01:21:01.478Z,31.67
2018-08-14T01:22:05.140Z,33.20
2018-08-14T01:23:08.709Z,31.50
2018-08-14T01:24:12.605Z,29.57
2018-08-14T01:25:16.614Z,30.33
2018-08-14T01:26:20.196Z,33.40
2018-08-14T01:27:23.720Z,30.67
2018-08-14T01:28:27.258Z,33.03
2018-08-14T01:29:30.809Z,31.43
2018-08-14T01:30:34.349Z,32.47
2018-08-14T01:31:38.514Z,29.90
2018-08-14T01:32:41.956Z,28.00
2018-08-14T01:33:45.416Z,30.27
2018-08-14T01:34:48.953Z,29.87
2018-08-14T01:35:52.649Z,31.70
2018-08-14T01:36:56.084Z,29.23
2018-08-14T01:37:59.659Z,31.00
2018-08-14T01:39:05.804Z,29.80
2018-08-14T01:40:09.473Z,30.80
2018-08-14T01:41:13.217Z,32.47
2018-08-14T01:42:16.825Z,32.00
2018-08-14T01:43:20.332Z,30.27
2018-08-14T01:44:24.120Z,30.80
2018-08-14T01:45:27.827Z,28.80
2018-08-14T01:46:31.595Z,31.87
2018-08-14T01:47:35.233Z,30.23
2018-08-14T01:48:38.735Z,29.20
2018-08-14T01:49:42.364Z,30.30
2018-08-14T01:50:46.737Z,30.87
2018-08-14T01:51:50.696Z,31.10
2018-08-14T01:52:54.233Z,30.13
2018-08-14T01:53:57.706Z,27.80
2018-08-14T01:55:01.370Z,30.83
2018-08-14T01:56:05.131Z,31.20
2018-08-14T01:57:08.551Z,33.70
2018-08-14T01:58:12.006Z,30.67
2018-08-14T01:59:15.325Z,30.23
2018-08-14T02:00:20.751Z,31.23
2018-08-14T02:01:24.415Z,31.47
2018-08-14T02:02:27.967Z,27.17
2018-08-14T02:03:31.294Z,27.57
2018-08-14T02:04:34.686Z,29.63
2018-08-14T02:05:38.123Z,28.33
2018-08-14T02:06:41.505Z,31.23
2018-08-14T02:07:45.097Z,31.77
2018-08-14T02:08:48.528Z,29.97
2018-08-14T02:09:51.970Z,25.60
2018-08-14T02:10:55.563Z,27.87
2018-08-14T02:11:59.186Z,29.23
2018-08-14T02:13:03.045Z,30.90
2018-08-14T02:14:06.480Z,29.67
2018-08-14T02:15:12.930Z,31.17
2018-08-14T02:16:16.342Z,29.23
2018-08-14T02:17:19.900Z,33.33
2018-08-14T02:18:23.504Z,31.73
2018-08-14T02:19:26.937Z,30.80
2018-08-14T02:20:30.431Z,30.87
2018-08-14T02:21:34.061Z,27.63
2018-08-14T02:22:37.755Z,29.80
2018-08-14T02:23:41.432Z,30.27
2018-08-14T02:24:44.936Z,29.80
2018-08-14T02:25:48.529Z,28.67
2018-08-14T02:26:52.184Z,30.90
2018-08-14T02:27:56.124Z,31.83
2018-08-14T02:28:59.516Z,31.03
2018-08-14T02:30:03.428Z,30.93
2018-08-14T02:31:07.224Z,27.47
2018-08-14T02:32:10.702Z,30.77
2018-08-14T02:33:14.179Z,28.53
2018-08-14T02:34:17.543Z,27.47
2018-08-14T02:35:21.192Z,28.27
2018-08-14T02:36:24.590Z,28.40
2018-08-14T02:37:28.273Z,26.93
2018-08-14T02:38:31.660Z,32.00
2018-08-14T02:39:35.145Z,30.33
2018-08-14T02:40:38.560Z,30.23
2018-08-14T02:41:42.092Z,28.03
2018-08-14T02:42:46.305Z,30.83
2018-08-14T02:43:49.969Z,30.20
2018-08-14T02:44:53.441Z,30.77
2018-08-14T02:45:56.820Z,29.50
2018-08-14T02:47:00.305Z,31.57
2018-08-14T02:48:03.940Z,29.60
2018-08-14T02:49:07.789Z,29.30
2018-08-14T02:50:12.623Z,28.23
2018-08-14T02:51:16.046Z,31.07
2018-08-14T02:52:19.538Z,31.10
2018-08-14T02:53:23.015Z,30.03
2018-08-14T02:54:26.684Z,30.20
2018-08-14T02:55:30.413Z,30.20
2018-08-14T02:56:34.093Z,33.63
2018-08-14T02:57:37.563Z,31.60
2018-08-14T02:58:41.135Z,33.67
2018-08-14T02:59:44.740Z,33.00
2018-08-14T03:00:48.264Z,32.77
2018-08-14T03:01:51.674Z,30.70
2018-08-14T03:02:55.616Z,32.60
2018-08-14T03:03:59.187Z,34.17
2018-08-14T03:05:03.128Z,32.47
2018-08-14T03:06:06.831Z,35.67
2018-08-14T03:07:10.401Z,32.47
2018-08-14T03:08:14.200Z,33.60
2018-08-14T03:09:17.944Z,33.70
2018-08-14T03:10:21.593Z,35.53
2018-08-14T03:11:25.218Z,35.13
2018-08-14T03:12:28.702Z,33.13
2018-08-14T03:13:32.268Z,35.17
2018-08-14T03:14:35.758Z,33.33
2018-08-14T03:15:39.507Z,35.73
2018-08-14T03:16:43.085Z,34.30
2018-08-14T03:17:52.142Z,28.97
2018-08-14T03:18:55.833Z,33.13
2018-08-14T03:20:00.247Z,35.03
2018-08-14T03:21:04.287Z,33.60
2018-08-14T03:22:07.918Z,32.93
2018-08-14T03:23:11.564Z,30.90
2018-08-14T03:24:14.986Z,32.93
2018-08-14T03:25:18.687Z,32.43
2018-08-14T03:26:22.100Z,33.70
2018-08-14T03:27:25.653Z,34.40
2018-08-14T03:28:29.176Z,33.40
2018-08-14T03:29:32.772Z,33.07
2018-08-14T03:30:36.380Z,33.37
2018-08-14T03:31:39.970Z,33.83
2018-08-14T03:32:43.919Z,34.47
2018-08-14T03:33:47.578Z,30.97
2018-08-14T03:34:51.321Z,33.27
2018-08-14T03:35:54.729Z,30.77
2018-08-14T03:36:58.338Z,30.70
2018-08-14T03:38:01.715Z,33.13
2018-08-14T03:39:11.180Z,34.23
2018-08-14T03:40:17.869Z,32.60
2018-08-14T03:41:21.426Z,34.87
2018-08-14T03:42:24.936Z,33.93
2018-08-14T03:43:28.451Z,35.00
2018-08-14T03:44:32.239Z,34.37
2018-08-14T03:45:37.240Z,33.40
2018-08-14T03:46:40.906Z,32.60
2018-08-14T03:47:45.013Z,29.87
2018-08-14T03:48:48.569Z,31.70
2018-08-14T03:49:52.032Z,32.00
2018-08-14T03:50:55.552Z,34.00
2018-08-14T03:51:58.996Z,34.60
2018-08-14T03:53:02.997Z,32.23
2018-08-14T03:54:06.616Z,29.47
2018-08-14T03:55:14.997Z,32.00
2018-08-14T03:56:18.627Z,31.17
2018-08-14T03:57:22.116Z,32.47
2018-08-14T03:58:25.751Z,28.80
2018-08-14T03:59:29.237Z,31.73
2018-08-14T04:00:32.755Z,29.37
2018-08-14T04:01:36.312Z,29.60
2018-08-14T04:02:40.017Z,31.83
2018-08-14T04:03:43.663Z,30.97
2018-08-14T04:04:47.215Z,28.63
2018-08-14T04:05:50.717Z,28.27
2018-08-14T04:06:54.788Z,29.60
2018-08-14T04:07:58.345Z,27.20
2018-08-14T04:09:02.449Z,26.57
2018-08-14T04:10:07.245Z,28.17
2018-08-14T04:11:11.275Z,27.90
2018-08-14T04:12:14.628Z,28.10
2018-08-14T04:13:18.217Z,29.17
2018-08-14T04:14:21.693Z,28.70
2018-08-14T04:15:25.094Z,29.50
2018-08-14T04:16:28.482Z,28.93
2018-08-14T04:17:31.889Z,29.33
2018-08-14T04:18:35.336Z,28.83
2018-08-14T04:19:38.947Z,29.10
2018-08-14T04:20:42.491Z,27.87
2018-08-14T04:21:46.456Z,24.23
2018-08-14T04:22:49.894Z,23.87
2018-08-14T04:23:53.347Z,26.60
2018-08-14T04:24:56.774Z,27.03
2018-08-14T04:26:00.367Z,24.32
2018-08-14T04:27:04.531Z,26.30
2018-08-14T04:28:07.980Z,23.83
2018-08-14T04:29:11.407Z,25.90
2018-08-14T04:30:14.825Z,25.80
2018-08-14T04:31:18.180Z,22.90
2018-08-14T04:32:21.712Z,21.97
2018-08-14T04:33:25.318Z,24.97
2018-08-14T04:34:28.793Z,25.93
2018-08-14T04:35:32.414Z,23.37
2018-08-14T04:36:36.455Z,26.50
2018-08-14T04:37:40.027Z,24.93
2018-08-14T04:38:43.421Z,23.53
2018-08-14T04:39:46.807Z,26.23
2018-08-14T04:40:50.264Z,24.03
2018-08-14T04:41:53.820Z,20.13
2018-08-14T04:42:57.408Z,26.03
2018-08-14T04:44:01.025Z,20.10
2018-08-14T04:45:05.146Z,21.50
2018-08-14T04:46:08.600Z,20.97
2018-08-14T04:47:12.193Z,24.40
2018-08-14T04:48:15.921Z,21.67
2018-08-14T04:49:19.395Z,24.20
2018-08-14T04:50:22.962Z,22.90
2018-08-14T04:51:26.560Z,22.73
2018-08-14T04:52:30.251Z,24.43
2018-08-14T04:53:33.730Z,21.53
2018-08-14T04:54:37.256Z,23.37
2018-08-14T04:55:40.843Z,24.10
2018-08-14T04:56:44.367Z,18.50
2018-08-14T04:57:47.948Z,22.40
2018-08-14T04:58:51.500Z,22.73
2018-08-14T04:59:55.136Z,20.13
2018-08-14T05:00:58.623Z,19.43
2018-08-14T05:02:02.035Z,19.13
2018-08-14T05:03:06.235Z,21.10
2018-08-14T05:04:09.612Z,21.77
2018-08-14T05:05:14.341Z,23.23
2018-08-14T05:06:17.901Z,23.30
2018-08-14T05:07:21.563Z,21.97
2018-08-14T05:08:27.636Z,24.93
2018-08-14T05:09:31.553Z,23.77
2018-08-14T05:10:35.468Z,22.57
2018-08-14T05:11:39.211Z,22.27
2018-08-14T05:12:43.113Z,21.90
2018-08-14T05:13:46.760Z,24.40
2018-08-14T05:14:50.462Z,23.53
2018-08-14T05:15:53.805Z,25.40
2018-08-14T05:16:57.372Z,22.00
2018-08-14T05:18:00.941Z,24.10
2018-08-14T05:19:04.731Z,22.17
2018-08-14T05:20:11.655Z,23.07
2018-08-14T05:21:15.384Z,22.27
2018-08-14T05:22:19.324Z,22.97
2018-08-14T05:23:23.346Z,24.43
2018-08-14T05:24:26.969Z,21.33
2018-08-14T05:25:30.477Z,20.80
2018-08-14T05:26:34.110Z,22.37
2018-08-14T05:27:38.402Z,21.70
2018-08-14T05:28:42.044Z,22.93
2018-08-14T05:29:45.864Z,22.90
2018-08-14T05:30:51.089Z,21.67
2018-08-14T05:31:54.561Z,22.53
2018-08-14T05:32:58.071Z,22.73
2018-08-14T05:34:01.635Z,20.15
2018-08-14T05:35:07.374Z,22.60
2018-08-14T05:36:11.085Z,20.27
2018-08-14T05:37:14.631Z,21.90
2018-08-14T05:38:18.137Z,19.30
2018-08-14T05:39:21.788Z,16.07
2018-08-14T05:40:25.384Z,20.03
2018-08-14T05:41:33.071Z,20.30
2018-08-14T05:42:36.826Z,20.57
2018-08-14T05:43:40.773Z,21.73
2018-08-14T05:44:48.858Z,20.33
2018-08-14T05:45:56.686Z,21.00
2018-08-14T05:47:00.360Z,20.77
2018-08-14T05:48:05.058Z,19.13
2018-08-14T05:49:08.895Z,19.13
2018-08-14T05:50:16.556Z,19.27
2018-08-14T05:51:20.395Z,19.33
2018-08-14T05:52:24.328Z,19.57
2018-08-14T05:53:27.885Z,17.57
2018-08-14T05:54:31.625Z,18.03
2018-08-14T05:55:35.243Z,15.17
2018-08-14T05:56:39.551Z,19.83
2018-08-14T05:57:44.407Z,19.90
2018-08-14T05:58:48.334Z,19.60
2018-08-14T05:59:51.735Z,18.97
2018-08-14T06:00:55.248Z,19.20
2018-08-14T06:01:58.687Z,22.63
2018-08-14T06:03:02.135Z,22.37
2018-08-14T06:04:05.967Z,22.00
2018-08-14T06:05:09.750Z,22.33
2018-08-14T06:06:13.171Z,24.03
2018-08-14T06:07:16.593Z,22.10
2018-08-14T06:08:20.204Z,21.67
2018-08-14T06:09:23.628Z,20.57
2018-08-14T06:10:27.183Z,23.57
2018-08-14T06:11:30.776Z,23.00
2018-08-14T06:12:34.602Z,21.33
2018-08-14T06:13:37.975Z,23.13
2018-08-14T06:14:41.418Z,23.97
2018-08-14T06:15:44.972Z,24.67
2018-08-14T06:16:48.498Z,26.50
2018-08-14T06:17:52.059Z,24.13
2018-08-14T06:18:55.565Z,23.53
2018-08-14T06:19:59.093Z,25.60
2018-08-14T06:21:02.768Z,23.53
2018-08-14T06:22:06.497Z,23.77
2018-08-14T06:23:10.046Z,24.65
2018-08-14T06:24:13.523Z,24.07
2018-08-14T06:25:17.171Z,22.67
2018-08-14T06:26:20.759Z,23.77
2018-08-14T06:27:24.324Z,20.60
2018-08-14T06:28:27.905Z,23.67
2018-08-14T06:29:31.605Z,23.27
2018-08-14T06:30:35.205Z,25.03
2018-08-14T06:31:38.893Z,21.83
2018-08-14T06:32:42.619Z,24.13
2018-08-14T06:33:46.202Z,24.30
2018-08-14T06:34:49.874Z,20.93
2018-08-14T06:35:53.313Z,25.03
2018-08-14T06:36:56.813Z,22.03
2018-08-14T06:38:00.445Z,23.63
2018-08-14T06:39:10.076Z,24.40
2018-08-14T06:40:15.954Z,21.97
2018-08-14T06:41:19.350Z,23.17
2018-08-14T06:42:22.820Z,24.40
2018-08-14T06:43:26.195Z,23.07
2018-08-14T06:44:29.597Z,23.33
2018-08-14T06:45:33.217Z,18.73
2018-08-14T06:46:36.923Z,24.97
2018-08-14T06:47:42.956Z,25.27
2018-08-14T06:48:46.624Z,23.17
2018-08-14T06:49:50.603Z,23.87
2018-08-14T06:50:54.149Z,24.70
2018-08-14T06:51:57.898Z,24.43
2018-08-14T06:53:01.333Z,23.27
2018-08-14T06:54:05.345Z,24.60
2018-08-14T06:55:09.944Z,20.07
2018-08-14T06:56:14.276Z,24.33
2018-08-14T06:57:17.685Z,23.43
2018-08-14T06:58:21.167Z,20.33
2018-08-14T06:59:24.712Z,17.93
2018-08-14T07:00:28.280Z,22.53
2018-08-14T07:01:31.922Z,21.07
2018-08-14T07:02:35.436Z,24.00
2018-08-14T07:03:38.920Z,19.87
2018-08-14T07:04:42.463Z,22.00
2018-08-14T07:05:46.047Z,18.83
2018-08-14T07:06:50.965Z,20.40
2018-08-14T07:07:54.498Z,18.43
2018-08-14T07:08:57.925Z,20.60
2018-08-14T07:10:01.431Z,20.23
2018-08-14T07:11:05.128Z,19.67
2018-08-14T07:12:08.697Z,18.90
2018-08-14T07:13:12.647Z,17.20
2018-08-14T07:14:16.137Z,16.50
2018-08-14T07:15:22.117Z,15.88
2018-08-14T07:16:25.672Z,17.23
2018-08-14T07:17:29.161Z,17.60
2018-08-14T07:18:32.792Z,17.07
2018-08-14T07:19:36.371Z,17.13
2018-08-14T07:20:40.068Z,16.23
2018-08-14T07:21:43.823Z,16.03
2018-08-14T07:22:49.720Z,15.17
2018-08-14T07:23:53.777Z,16.67
2018-08-14T07:24:58.661Z,15.07
2018-08-14T07:26:03.535Z,15.37
2018-08-14T07:27:06.929Z,14.23
2018-08-14T07:28:11.648Z,17.23
2018-08-14T07:29:15.647Z,17.40
2018-08-14T07:30:23.648Z,12.77
2018-08-14T07:31:27.285Z,16.00
2018-08-14T07:32:31.901Z,12.00
2018-08-14T07:33:36.140Z,16.10
2018-08-14T07:34:40.302Z,16.80
2018-08-14T07:35:44.844Z,16.67
2018-08-14T07:36:50.104Z,15.88
2018-08-14T07:38:00.765Z,16.97
2018-08-14T07:39:07.224Z,16.63
2018-08-14T07:40:12.899Z,16.90
2018-08-14T07:41:17.406Z,16.32
2018-08-14T07:42:21.841Z,16.27
2018-08-14T07:43:26.075Z,14.53
2018-08-14T07:44:30.672Z,16.33
2018-08-14T07:45:35.357Z,16.15
2018-08-14T07:46:40.484Z,15.03
2018-08-14T07:47:45.144Z,13.70
2018-08-14T07:48:50.030Z,17.10
2018-08-14T07:49:53.640Z,16.47
2018-08-14T07:50:57.169Z,15.50
2018-08-14T07:52:00.846Z,13.55
2018-08-14T07:53:05.217Z,13.78
2018-08-14T07:54:10.596Z,14.70
2018-08-14T07:55:15.201Z,13.93
2018-08-14T07:56:19.471Z,14.77
2018-08-14T07:57:23.767Z,12.70
2018-08-14T07:58:28.488Z,10.80
2018-08-14T07:59:32.209Z,9.93
2018-08-14T08:00:35.811Z,11.40
2018-08-14T08:01:39.588Z,10.40
2018-08-14T08:02:45.300Z,11.00
2018-08-14T08:03:48.747Z,11.20
2018-08-14T08:04:52.093Z,9.60
2018-08-14T08:05:58.051Z,8.98
2018-08-14T08:07:01.675Z,9.83
2018-08-14T08:08:05.852Z,10.20
2018-08-14T08:09:13.135Z,9.90
2018-08-14T08:10:17.222Z,8.80
2018-08-14T08:11:21.211Z,10.10
2018-08-14T08:12:25.425Z,9.10
2018-08-14T08:13:33.332Z,9.33
2018-08-14T08:14:37.283Z,10.00
2018-08-14T08:15:40.676Z,9.40
2018-08-14T08:16:44.517Z,12.50
2018-08-14T08:17:48.356Z,11.57
2018-08-14T08:18:52.528Z,12.70
2018-08-14T08:19:56.723Z,10.18
2018-08-14T08:21:00.649Z,10.60
2018-08-14T08:22:07.653Z,10.97
2018-08-14T08:23:11.144Z,12.57
2018-08-14T08:24:15.178Z,11.40
2018-08-14T08:25:18.945Z,11.07
2018-08-14T08:26:24.929Z,11.97
2018-08-14T08:27:29.103Z,10.33
2018-08-14T08:28:32.755Z,11.00
2018-08-14T08:29:43.140Z,11.30
2018-08-14T08:30:46.879Z,10.25
2018-08-14T08:31:50.828Z,10.83
2018-08-14T08:32:55.313Z,8.40
2018-08-14T08:33:58.870Z,9.03
2018-08-14T08:35:03.158Z,10.07
2018-08-14T08:36:07.554Z,8.17
2018-08-14T08:37:11.449Z,8.78
2018-08-14T08:38:15.821Z,8.30
2018-08-14T08:39:20.345Z,7.33
2018-08-14T08:40:25.000Z,7.93
2018-08-14T08:41:29.365Z,8.43
2018-08-14T08:43:47.535Z,6.55
2018-08-14T08:46:03.149Z,9.50
2018-08-14T08:47:06.940Z,9.43
2018-08-14T08:48:17.590Z,8.27
2018-08-14T08:49:21.691Z,8.10
2018-08-14T08:50:25.191Z,8.17
2018-08-14T08:51:29.361Z,9.90
2018-08-14T08:52:33.335Z,9.73
2018-08-14T08:53:37.991Z,9.78
2018-08-14T08:54:41.844Z,10.32
2018-08-14T08:55:47.229Z,9.88
2018-08-14T08:56:53.791Z,8.98
2018-08-14T08:57:58.405Z,9.25
2018-08-14T08:59:02.631Z,9.20
2018-08-14T09:00:11.825Z,9.78
2018-08-14T09:01:17.123Z,7.83
2018-08-14T09:02:21.247Z,7.50
2018-08-14T09:03:25.986Z,8.60
2018-08-14T09:04:31.321Z,8.85
2018-08-14T09:05:40.539Z,7.62
2018-08-14T09:06:44.362Z,6.97
2018-08-14T09:07:49.127Z,7.60
2018-08-14T09:08:52.811Z,7.78
2018-08-14T09:09:56.437Z,6.40
2018-08-14T09:11:00.312Z,5.92
2018-08-14T09:12:04.470Z,6.00
2018-08-14T09:13:09.972Z,6.08
2018-08-14T09:14:13.593Z,5.70
2018-08-14T09:15:18.061Z,5.08
2018-08-14T09:16:22.364Z,5.00
2018-08-14T09:17:26.134Z,5.00
2018-08-14T09:18:30.073Z,5.37
2018-08-14T09:19:33.973Z,5.10
2018-08-14T09:20:37.505Z,5.70
2018-08-14T09:21:41.636Z,5.17
2018-08-14T09:22:46.383Z,4.75
2018-08-14T09:23:50.063Z,5.20
2018-08-14T09:24:54.091Z,5.10
2018-08-14T09:25:59.798Z,5.75
2018-08-14T09:27:03.511Z,5.47
2018-08-14T09:28:07.437Z,6.12
2018-08-14T09:29:11.090Z,5.87
2018-08-14T09:30:16.980Z,5.65
2018-08-14T09:31:20.904Z,5.40
2018-08-14T09:32:24.701Z,5.30
2018-08-14T09:33:28.218Z,5.78
2018-08-14T09:34:31.970Z,5.40
2018-08-14T09:35:37.071Z,5.42
2018-08-14T09:36:41.875Z,6.25
2018-08-14T09:37:47.828Z,6.70
2018-08-14T09:38:52.222Z,7.08
2018-08-14T09:39:56.534Z,6.55
2018-08-14T09:41:00.964Z,6.20
2018-08-14T09:42:05.325Z,5.80
2018-08-14T09:43:09.079Z,6.08
2018-08-14T09:44:13.399Z,5.60
2018-08-14T09:46:30.521Z,5.50
2018-08-14T09:47:34.200Z,5.40
2018-08-14T09:48:37.754Z,5.42
2018-08-14T09:49:41.568Z,5.35
2018-08-14T09:50:45.180Z,5.60
2018-08-14T09:51:49.869Z,5.22
2018-08-14T09:52:55.077Z,4.87
2018-08-14T09:53:59.092Z,4.75
2018-08-14T09:55:02.623Z,5.22
2018-08-14T09:56:06.289Z,4.78
2018-08-14T09:57:10.241Z,4.40
2018-08-14T09:58:15.044Z,4.53
2018-08-14T09:59:20.773Z,4.33
2018-08-14T10:00:34.035Z,3.77
2018-08-14T10:01:43.310Z,3.90
2018-08-14T10:02:47.169Z,3.77
2018-08-14T10:03:57.284Z,4.05
2018-08-14T10:07:11.309Z,3.87
2018-08-14T10:08:17.178Z,3.35
2018-08-14T10:09:22.275Z,3.72
2018-08-14T10:10:26.864Z,3.90
2018-08-14T10:11:31.342Z,3.80
2018-08-14T10:12:34.959Z,4.70
2018-08-14T10:13:38.701Z,4.22
2018-08-14T10:14:42.765Z,4.28
2018-08-14T10:15:48.395Z,3.70
2018-08-14T10:16:52.170Z,3.87
2018-08-14T10:17:58.449Z,4.55
2018-08-14T10:19:02.886Z,3.90
2018-08-14T10:20:09.539Z,3.80
2018-08-14T10:21:13.177Z,3.62
2018-08-14T10:22:17.491Z,4.03
2018-08-14T10:23:21.519Z,4.47
2018-08-14T10:24:25.107Z,4.67
2018-08-14T10:25:29.865Z,4.20
2018-08-14T10:26:33.512Z,4.28
2018-08-14T10:27:37.185Z,3.70
2018-08-14T10:28:40.938Z,4.03
2018-08-14T10:29:44.441Z,4.12
2018-08-14T10:30:47.902Z,3.80
2018-08-14T10:31:51.551Z,3.72
2018-08-14T10:32:55.360Z,3.77
2018-08-14T10:33:58.924Z,4.20
2018-08-14T10:35:02.580Z,4.22
2018-08-14T10:36:06.352Z,4.87
2018-08-14T10:37:09.904Z,4.37
2018-08-14T10:38:13.349Z,4.20
2018-08-14T10:39:16.965Z,4.20
2018-08-14T10:40:20.504Z,3.90
2018-08-14T10:41:24.191Z,4.62
2018-08-14T10:42:29.487Z,5.17
2018-08-14T10:43:33.226Z,5.12
2018-08-14T10:44:37.046Z,4.40
2018-08-14T10:45:40.655Z,4.50
2018-08-14T10:46:44.571Z,5.28
2018-08-14T10:47:48.377Z,4.92
2018-08-14T10:48:52.158Z,4.53
2018-08-14T10:49:55.797Z,5.00
2018-08-14T10:50:59.593Z,5.70
2018-08-14T10:52:03.256Z,6.03
2018-08-14T10:53:06.861Z,5.85
2018-08-14T10:54:10.497Z,5.92
2018-08-14T10:55:14.665Z,6.45
2018-08-14T10:56:18.465Z,6.90
2018-08-14T10:57:22.090Z,6.75
2018-08-14T10:58:25.699Z,7.67
2018-08-14T10:59:29.460Z,7.95
2018-08-14T11:00:33.078Z,7.30
2018-08-14T11:01:36.686Z,7.95
2018-08-14T11:02:40.277Z,6.20
2018-08-14T11:03:43.961Z,6.03
2018-08-14T11:04:48.431Z,6.65
2018-08-14T11:05:52.351Z,6.12
2018-08-14T11:06:56.107Z,5.53
2018-08-14T11:08:00.142Z,6.67
2018-08-14T11:09:05.344Z,7.53
2018-08-14T11:10:12.817Z,8.48
2018-08-14T11:11:18.560Z,7.90
2018-08-14T11:12:22.149Z,6.20
2018-08-14T11:13:25.589Z,5.30
2018-08-14T11:14:29.024Z,5.40
2018-08-14T11:15:32.535Z,5.40
2018-08-14T11:16:36.228Z,5.80
2018-08-14T11:17:40.132Z,4.37
2018-08-14T11:18:43.806Z,6.05
2018-08-14T11:19:48.171Z,5.28
2018-08-14T11:20:51.768Z,5.90
2018-08-14T11:21:55.369Z,5.37
2018-08-14T11:23:00.351Z,4.47
2018-08-14T11:24:04.032Z,5.72
2018-08-14T11:25:07.818Z,4.65
2018-08-14T11:26:14.881Z,4.25
2018-08-14T11:27:23.177Z,4.92
2018-08-14T11:28:26.891Z,4.42
2018-08-14T11:29:32.217Z,4.75
2018-08-14T11:30:36.255Z,4.92
2018-08-14T11:31:40.457Z,5.72
2018-08-14T11:32:44.277Z,5.92
2018-08-14T11:33:48.222Z,5.40
2018-08-14T11:34:52.249Z,6.60
2018-08-14T11:36:01.259Z,6.15
2018-08-14T11:37:04.767Z,6.72
2018-08-14T11:38:08.407Z,6.67
2018-08-14T11:39:12.186Z,6.65
2018-08-14T11:40:15.776Z,6.87
2018-08-14T11:41:19.381Z,7.08
2018-08-14T11:42:23.261Z,7.40
2018-08-14T11:43:27.184Z,6.20
2018-08-14T11:44:31.100Z,6.78
2018-08-14T11:45:34.930Z,6.87
2018-08-14T11:46:38.859Z,6.60
2018-08-14T11:47:42.995Z,7.03
2018-08-14T11:48:46.413Z,7.10
2018-08-14T11:49:49.988Z,6.72
2018-08-14T11:50:54.012Z,6.55
2018-08-14T11:51:57.457Z,6.87
2018-08-14T11:53:01.571Z,6.83
2018-08-14T11:54:07.781Z,6.60
2018-08-14T11:55:11.473Z,6.53
2018-08-14T11:56:15.396Z,6.42
2018-08-14T11:57:19.000Z,5.80
2018-08-14T11:58:22.975Z,5.42
2018-08-14T11:59:26.762Z,5.80
2018-08-14T12:00:30.734Z,4.60
2018-08-14T12:01:34.315Z,4.83
2018-08-14T12:02:37.914Z,4.72
2018-08-14T12:03:41.549Z,5.08
2018-08-14T12:04:45.471Z,5.15
2018-08-14T12:05:49.422Z,4.75
2018-08-14T12:06:53.109Z,4.30
2018-08-14T12:07:56.896Z,4.37
2018-08-14T12:09:00.606Z,4.20
2018-08-14T12:10:06.744Z,4.97
2018-08-14T12:11:10.465Z,4.53
2018-08-14T12:12:14.004Z,4.25
2018-08-14T12:13:17.427Z,4.15
2018-08-14T12:14:20.929Z,3.98
2018-08-14T12:15:24.908Z,3.72
2018-08-14T12:16:28.389Z,3.70
2018-08-14T12:17:31.919Z,3.87
2018-08-14T12:18:36.026Z,3.92
2018-08-14T12:19:40.180Z,3.72
2018-08-14T12:20:43.699Z,4.50
2018-08-14T12:21:47.128Z,4.60
2018-08-14T12:22:51.001Z,4.53
2018-08-14T12:23:55.282Z,4.30
2018-08-14T12:24:58.883Z,3.58
2018-08-14T12:26:03.648Z,3.40
2018-08-14T12:27:07.657Z,3.50
2018-08-14T12:28:11.144Z,2.90
2018-08-14T12:29:14.543Z,3.00
2018-08-14T12:30:23.156Z,2.80
2018-08-14T12:31:26.759Z,2.83
2018-08-14T12:32:30.451Z,3.10
2018-08-14T12:33:33.877Z,3.20
2018-08-14T12:34:38.587Z,2.90
2018-08-14T12:35:42.310Z,3.17
2018-08-14T12:36:45.841Z,3.60
2018-08-14T12:37:49.329Z,3.37
2018-08-14T12:38:52.871Z,3.27
2018-08-14T12:39:56.281Z,3.42
2018-08-14T12:41:00.236Z,2.83
2018-08-14T12:42:03.897Z,3.50
2018-08-14T12:43:07.438Z,2.83
2018-08-14T12:44:11.133Z,3.15
2018-08-14T12:45:21.363Z,3.22
2018-08-14T12:46:25.013Z,3.30
2018-08-14T12:47:28.853Z,3.00
2018-08-14T12:48:32.312Z,2.70
2018-08-14T12:49:36.064Z,3.10
2018-08-14T12:50:39.545Z,2.55
2018-08-14T12:51:43.462Z,2.50
2018-08-14T12:52:47.191Z,2.30
2018-08-14T12:53:50.646Z,2.60
2018-08-14T12:54:54.136Z,2.72
2018-08-14T12:55:57.904Z,2.58
2018-08-14T12:57:01.937Z,2.50
2018-08-14T12:58:05.994Z,2.30
2018-08-14T12:59:09.447Z,2.10
2018-08-14T13:00:21.263Z,1.92
2018-08-14T13:01:24.913Z,1.80
2018-08-14T13:02:28.847Z,1.70
2018-08-14T13:03:32.475Z,1.62
2018-08-14T13:04:36.835Z,1.52
2018-08-14T13:05:40.647Z,1.80
2018-08-14T13:06:44.079Z,1.67
2018-08-14T13:07:48.011Z,1.55
2018-08-14T13:08:51.844Z,1.60
2018-08-14T13:09:55.667Z,1.50
2018-08-14T13:11:00.000Z,1.30
2018-08-14T13:12:04.045Z,1.27
2018-08-14T13:13:08.089Z,1.25
2018-08-14T13:14:11.739Z,1.37
2018-08-14T13:15:15.781Z,1.50
2018-08-14T13:16:19.481Z,1.37
2018-08-14T13:17:26.059Z,1.50
2018-08-14T13:18:29.874Z,1.60
2018-08-14T13:19:34.151Z,1.45
2018-08-14T13:20:38.343Z,1.80
2018-08-14T13:21:43.440Z,1.37
2018-08-14T13:22:47.372Z,1.30
2018-08-14T13:23:52.207Z,1.60
2018-08-14T13:24:56.911Z,1.90
2018-08-14T13:26:02.191Z,1.50
2018-08-14T13:27:06.772Z,1.70
2018-08-14T13:28:11.777Z,1.55
2018-08-14T13:29:15.792Z,1.72
2018-08-14T13:30:20.006Z,1.55
2018-08-14T13:31:23.973Z,1.37
2018-08-14T13:32:28.075Z,1.72
2018-08-14T13:33:32.709Z,1.90
2018-08-14T13:34:36.395Z,1.85
2018-08-14T13:35:42.327Z,1.70
2018-08-14T13:36:46.807Z,2.20
2018-08-14T13:37:51.795Z,2.15
2018-08-14T13:38:56.538Z,2.50
2018-08-14T13:40:01.976Z,2.35
2018-08-14T13:41:06.908Z,2.40
2018-08-14T13:42:11.731Z,2.30
2018-08-14T13:43:16.552Z,1.85
2018-08-14T13:44:22.439Z,2.45
2018-08-14T13:45:26.886Z,2.02
2018-08-14T13:46:30.867Z,2.22
2018-08-14T13:47:34.906Z,1.98
2018-08-14T13:48:39.147Z,2.30
2018-08-14T13:49:43.014Z,2.25
2018-08-14T13:50:47.093Z,2.40
2018-08-14T13:51:51.259Z,1.77
2018-08-14T13:52:55.861Z,1.72
2018-08-14T13:53:59.842Z,2.00
2018-08-14T13:55:05.195Z,2.17
2018-08-14T13:56:10.325Z,1.80
2018-08-14T13:57:14.328Z,2.50
2018-08-14T13:58:19.351Z,2.40
2018-08-14T13:59:24.620Z,2.05
2018-08-14T14:00:29.410Z,2.12
2018-08-14T14:01:33.535Z,2.35